TVF64FU LEVC-LFPO
Flight info
| Callsign | TVF64FU |
|---|---|
| Flight time | 1h 36m |
| Altitude | 38000 |
| Route | SOPET N608 MATEX DCT OSLAP DCT ARBEK DCT SINDO DCT RUTIP DCT OKABI DCT TOU DCT DIBAG/N0434F340 DCT TUDRA/N0399F280 DCT BEVOL UT158 AMB |
| Aircraft | B738/M-SDFGHIJ1RWXY/LB1 |
Departure
| Time | 2026-05-08 11:32 |
|---|---|
| Airport | Valencia Airport (LEVC) |
Arrival
| Time | 2026-05-08 13:09 |
|---|---|
| Airport | Paris-Orly Airport (LFPO) |
| Time | Latitude | Longitude | Altitude | Speed | Heading |
|---|---|---|---|---|---|
| 2026-05-08 11:00 | 39.48944 | -0.47530 | 208 ft | 0 kts | 206° |
| 2026-05-08 11:04 | 39.49119 | -0.47543 | 215 ft | 0 kts | 45° |
| 2026-05-08 11:24 | 39.49107 | -0.47559 | 216 ft | 4 kts | 39° |
| 2026-05-08 11:24 | 39.49085 | -0.47577 | 212 ft | 4 kts | 20° |
| 2026-05-08 11:24 | 39.49060 | -0.47584 | 208 ft | 4 kts | 354° |
| 2026-05-08 11:24 | 39.49037 | -0.47574 | 219 ft | 4 kts | 306° |
| 2026-05-08 11:25 | 39.49034 | -0.47568 | 217 ft | 0 kts | 296° |
| 2026-05-08 11:26 | 39.49034 | -0.47569 | 217 ft | 1 kts | 296° |
| 2026-05-08 11:26 | 39.49044 | -0.47595 | 219 ft | 7 kts | 296° |
| 2026-05-08 11:27 | 39.49057 | -0.47685 | 210 ft | 14 kts | 256° |
| 2026-05-08 11:27 | 39.49030 | -0.47832 | 215 ft | 19 kts | 257° |
| 2026-05-08 11:27 | 39.49067 | -0.47989 | 213 ft | 18 kts | 296° |
| 2026-05-08 11:27 | 39.49122 | -0.48134 | 214 ft | 18 kts | 296° |
| 2026-05-08 11:28 | 39.49175 | -0.48275 | 208 ft | 17 kts | 296° |
| 2026-05-08 11:28 | 39.49227 | -0.48410 | 208 ft | 16 kts | 296° |
| 2026-05-08 11:28 | 39.49276 | -0.48540 | 210 ft | 16 kts | 296° |
| 2026-05-08 11:28 | 39.49324 | -0.48666 | 216 ft | 15 kts | 296° |
| 2026-05-08 11:29 | 39.49370 | -0.48788 | 208 ft | 15 kts | 296° |
| 2026-05-08 11:29 | 39.49415 | -0.48904 | 214 ft | 14 kts | 297° |
| 2026-05-08 11:29 | 39.49458 | -0.49015 | 216 ft | 13 kts | 296° |
| 2026-05-08 11:29 | 39.49500 | -0.49127 | 213 ft | 15 kts | 296° |
| 2026-05-08 11:30 | 39.49548 | -0.49255 | 209 ft | 17 kts | 296° |
| 2026-05-08 11:30 | 39.49603 | -0.49399 | 210 ft | 19 kts | 296° |
| 2026-05-08 11:30 | 39.49659 | -0.49546 | 211 ft | 18 kts | 296° |
| 2026-05-08 11:30 | 39.49713 | -0.49689 | 213 ft | 17 kts | 296° |
| 2026-05-08 11:31 | 39.49766 | -0.49828 | 210 ft | 17 kts | 296° |
| 2026-05-08 11:31 | 39.49780 | -0.49961 | 216 ft | 16 kts | 216° |
| 2026-05-08 11:31 | 39.49683 | -0.50030 | 213 ft | 16 kts | 199° |
| 2026-05-08 11:31 | 39.49610 | -0.49948 | 219 ft | 17 kts | 116° |
| 2026-05-08 11:32 | 39.49465 | -0.49567 | 213 ft | 83 kts | 116° |
| 2026-05-08 11:32 | 39.49115 | -0.48645 | 211 ft | 143 kts | 116° |
| 2026-05-08 11:32 | 39.48644 | -0.47384 | 567 ft | 163 kts | 117° |
| 2026-05-08 11:32 | 39.48108 | -0.46086 | 1294 ft | 165 kts | 117° |
| 2026-05-08 11:33 | 39.47568 | -0.44785 | 2056 ft | 167 kts | 117° |
| 2026-05-08 11:33 | 39.46856 | -0.43462 | 2373 ft | 197 kts | 142° |
| 2026-05-08 11:33 | 39.45527 | -0.42722 | 2620 ft | 220 kts | 155° |
| 2026-05-08 11:33 | 39.44384 | -0.41352 | 2905 ft | 234 kts | 116° |
| 2026-05-08 11:34 | 39.43691 | -0.39416 | 3378 ft | 247 kts | 118° |
| 2026-05-08 11:34 | 39.42799 | -0.37442 | 3897 ft | 260 kts | 122° |
| 2026-05-08 11:34 | 39.41807 | -0.35456 | 4789 ft | 261 kts | 124° |
| 2026-05-08 11:34 | 39.40794 | -0.33500 | 5736 ft | 265 kts | 125° |
| 2026-05-08 11:35 | 39.39798 | -0.31464 | 6653 ft | 272 kts | 116° |
| 2026-05-08 11:35 | 39.39590 | -0.29051 | 7507 ft | 278 kts | 78° |
| 2026-05-08 11:35 | 39.40496 | -0.26834 | 8196 ft | 288 kts | 45° |
| 2026-05-08 11:35 | 39.42185 | -0.25419 | 8920 ft | 293 kts | 22° |
| 2026-05-08 11:36 | 39.44188 | -0.24874 | 9653 ft | 297 kts | 4° |
| 2026-05-08 11:36 | 39.46262 | -0.24669 | 10331 ft | 303 kts | 3° |
| 2026-05-08 11:36 | 39.47686 | -0.24514 | 10476 ft | 319 kts | 4° |
| 2026-05-08 11:36 | 39.49971 | -0.24204 | 10701 ft | 340 kts | 5° |
| 2026-05-08 11:37 | 39.52352 | -0.23809 | 11219 ft | 349 kts | 6° |
| 2026-05-08 11:37 | 39.54773 | -0.23357 | 11903 ft | 354 kts | 6° |
| 2026-05-08 11:37 | 39.57222 | -0.22872 | 12629 ft | 358 kts | 6° |
| 2026-05-08 11:37 | 39.59690 | -0.22369 | 13436 ft | 360 kts | 6° |
| 2026-05-08 11:38 | 39.62169 | -0.21860 | 14188 ft | 363 kts | 6° |
| 2026-05-08 11:38 | 39.64687 | -0.21344 | 14789 ft | 371 kts | 6° |
| 2026-05-08 11:38 | 39.67212 | -0.20463 | 15358 ft | 383 kts | 24° |
| 2026-05-08 11:38 | 39.69410 | -0.18461 | 16002 ft | 391 kts | 43° |
| 2026-05-08 11:39 | 39.71365 | -0.15975 | 16646 ft | 397 kts | 45° |
| 2026-05-08 11:39 | 39.73333 | -0.13403 | 17215 ft | 405 kts | 45° |
| 2026-05-08 11:39 | 39.75996 | -0.09938 | 18009 ft | 413 kts | 44° |
| 2026-05-08 11:39 | 39.77383 | -0.08156 | 18404 ft | 417 kts | 44° |
| 2026-05-08 11:40 | 39.79470 | -0.05496 | 18959 ft | 422 kts | 44° |
| 2026-05-08 11:40 | 39.81576 | -0.02821 | 19592 ft | 424 kts | 44° |
| 2026-05-08 11:40 | 39.83894 | -0.00454 | 20158 ft | 427 kts | 26° |
| 2026-05-08 11:40 | 39.86665 | 0.00894 | 20745 ft | 426 kts | 13° |
| 2026-05-08 11:41 | 39.89533 | 0.01930 | 21296 ft | 430 kts | 12° |
| 2026-05-08 11:41 | 39.92437 | 0.02949 | 21803 ft | 435 kts | 12° |
| 2026-05-08 11:41 | 39.95375 | 0.03989 | 22327 ft | 440 kts | 12° |
| 2026-05-08 11:41 | 39.98335 | 0.05057 | 22867 ft | 443 kts | 13° |
| 2026-05-08 11:42 | 40.01316 | 0.06151 | 23387 ft | 447 kts | 13° |
| 2026-05-08 11:42 | 40.04324 | 0.07268 | 23888 ft | 451 kts | 13° |
| 2026-05-08 11:42 | 40.07349 | 0.08398 | 24352 ft | 454 kts | 13° |
| 2026-05-08 11:42 | 40.10389 | 0.09536 | 24817 ft | 456 kts | 13° |
| 2026-05-08 11:43 | 40.13455 | 0.10684 | 25242 ft | 460 kts | 13° |
| 2026-05-08 11:43 | 40.16495 | 0.11823 | 25693 ft | 462 kts | 13° |
| 2026-05-08 11:43 | 40.19594 | 0.12984 | 26133 ft | 465 kts | 13° |
| 2026-05-08 11:43 | 40.22712 | 0.14152 | 26549 ft | 467 kts | 13° |
| 2026-05-08 11:44 | 40.25892 | 0.15341 | 26955 ft | 471 kts | 13° |
| 2026-05-08 11:44 | 40.29051 | 0.16518 | 27369 ft | 473 kts | 14° |
| 2026-05-08 11:44 | 40.32225 | 0.17701 | 27789 ft | 475 kts | 13° |
| 2026-05-08 11:44 | 40.35368 | 0.18874 | 28188 ft | 478 kts | 14° |
| 2026-05-08 11:45 | 40.38573 | 0.20072 | 28581 ft | 480 kts | 14° |
| 2026-05-08 11:45 | 40.41794 | 0.21277 | 28928 ft | 483 kts | 13° |
| 2026-05-08 11:45 | 40.45033 | 0.22492 | 29278 ft | 485 kts | 14° |
| 2026-05-08 11:45 | 40.48289 | 0.23714 | 29641 ft | 488 kts | 14° |
| 2026-05-08 11:46 | 40.51555 | 0.24940 | 30042 ft | 489 kts | 14° |
| 2026-05-08 11:46 | 40.54825 | 0.26192 | 30345 ft | 491 kts | 16° |
| 2026-05-08 11:46 | 40.58005 | 0.27879 | 30604 ft | 495 kts | 26° |
| 2026-05-08 11:46 | 40.61073 | 0.29972 | 30870 ft | 498 kts | 27° |
| 2026-05-08 11:47 | 40.64125 | 0.32144 | 31136 ft | 500 kts | 28° |
| 2026-05-08 11:47 | 40.67189 | 0.34340 | 31388 ft | 503 kts | 28° |
| 2026-05-08 11:47 | 40.70273 | 0.36537 | 31653 ft | 504 kts | 27° |
| 2026-05-08 11:47 | 40.73366 | 0.38717 | 31956 ft | 504 kts | 27° |
| 2026-05-08 11:48 | 40.76457 | 0.40877 | 32357 ft | 502 kts | 27° |
| 2026-05-08 11:48 | 40.79544 | 0.43024 | 32715 ft | 501 kts | 27° |
| 2026-05-08 11:48 | 40.82630 | 0.45168 | 33039 ft | 501 kts | 27° |
| 2026-05-08 11:48 | 40.85714 | 0.47312 | 33371 ft | 501 kts | 27° |
| 2026-05-08 11:49 | 40.88799 | 0.49460 | 33710 ft | 500 kts | 27° |
| 2026-05-08 11:49 | 40.91871 | 0.51603 | 34115 ft | 496 kts | 27° |
| 2026-05-08 11:49 | 40.94883 | 0.53708 | 34851 ft | 485 kts | 27° |
| 2026-05-08 11:49 | 40.97860 | 0.55792 | 35175 ft | 484 kts | 27° |
| 2026-05-08 11:50 | 41.00855 | 0.57888 | 35242 ft | 489 kts | 27° |
| 2026-05-08 11:50 | 41.03877 | 0.60007 | 35379 ft | 492 kts | 27° |
| 2026-05-08 11:50 | 41.06895 | 0.62125 | 35700 ft | 490 kts | 27° |
| 2026-05-08 11:50 | 41.09899 | 0.64236 | 36058 ft | 487 kts | 27° |
| 2026-05-08 11:51 | 41.12876 | 0.66379 | 36358 ft | 487 kts | 30° |
| 2026-05-08 11:51 | 41.15650 | 0.68964 | 36545 ft | 488 kts | 39° |
| 2026-05-08 11:51 | 41.18245 | 0.71865 | 36768 ft | 488 kts | 41° |
| 2026-05-08 11:51 | 41.20809 | 0.74823 | 37027 ft | 488 kts | 41° |
| 2026-05-08 11:52 | 41.23364 | 0.77781 | 37263 ft | 487 kts | 40° |
| 2026-05-08 11:52 | 41.25921 | 0.80720 | 37533 ft | 486 kts | 40° |
| 2026-05-08 11:52 | 41.28487 | 0.83643 | 37764 ft | 486 kts | 40° |
| 2026-05-08 11:52 | 41.31062 | 0.86555 | 37921 ft | 486 kts | 39° |
| 2026-05-08 11:53 | 41.33635 | 0.89459 | 37996 ft | 486 kts | 39° |
| 2026-05-08 11:53 | 41.38799 | 0.95287 | 38023 ft | 485 kts | 40° |
| 2026-05-08 11:54 | 41.43920 | 1.01085 | 38007 ft | 481 kts | 40° |
| 2026-05-08 11:54 | 41.48999 | 1.06852 | 38008 ft | 478 kts | 40° |
| 2026-05-08 11:55 | 41.54310 | 1.12105 | 38018 ft | 474 kts | 26° |
| 2026-05-08 11:55 | 41.60469 | 1.15181 | 38010 ft | 475 kts | 10° |
| 2026-05-08 11:56 | 41.66939 | 1.17196 | 38011 ft | 480 kts | 9° |
| 2026-05-08 11:56 | 41.73467 | 1.19224 | 37995 ft | 483 kts | 10° |
| 2026-05-08 11:57 | 41.80011 | 1.21338 | 37972 ft | 481 kts | 11° |
| 2026-05-08 11:57 | 41.86446 | 1.23454 | 37955 ft | 472 kts | 11° |
| 2026-05-08 11:58 | 41.92828 | 1.25552 | 37970 ft | 472 kts | 11° |
| 2026-05-08 11:58 | 41.99220 | 1.27653 | 37978 ft | 473 kts | 11° |
| 2026-05-08 11:59 | 42.08810 | 1.30816 | 37981 ft | 474 kts | 11° |
| 2026-05-08 11:59 | 42.15218 | 1.32932 | 37987 ft | 475 kts | 11° |
| 2026-05-08 12:00 | 42.21619 | 1.35037 | 38034 ft | 476 kts | 11° |
| 2026-05-08 12:00 | 42.28065 | 1.37162 | 38019 ft | 477 kts | 11° |
| 2026-05-08 12:01 | 42.34516 | 1.39294 | 38021 ft | 477 kts | 11° |
| 2026-05-08 12:01 | 42.40970 | 1.41432 | 38040 ft | 477 kts | 11° |
| 2026-05-08 12:02 | 42.47378 | 1.43558 | 38027 ft | 478 kts | 11° |
| 2026-05-08 12:02 | 42.53821 | 1.45741 | 38008 ft | 477 kts | 11° |
| 2026-05-08 12:03 | 42.60273 | 1.47789 | 38004 ft | 473 kts | 4° |
| 2026-05-08 12:03 | 42.66753 | 1.47758 | 37994 ft | 462 kts | 349° |
| 2026-05-08 12:04 | 42.73127 | 1.46649 | 37963 ft | 462 kts | 348° |
| 2026-05-08 12:04 | 42.79500 | 1.45542 | 37947 ft | 461 kts | 349° |
| 2026-05-08 12:05 | 42.85865 | 1.44486 | 37936 ft | 460 kts | 349° |
| 2026-05-08 12:05 | 42.92222 | 1.43455 | 37951 ft | 460 kts | 349° |
| 2026-05-08 12:06 | 42.98577 | 1.42428 | 37944 ft | 460 kts | 349° |
| 2026-05-08 12:06 | 43.04932 | 1.41396 | 37950 ft | 460 kts | 349° |
| 2026-05-08 12:07 | 43.11284 | 1.40361 | 37937 ft | 460 kts | 349° |
| 2026-05-08 12:07 | 43.17632 | 1.39324 | 37933 ft | 459 kts | 349° |
| 2026-05-08 12:08 | 43.23973 | 1.38286 | 37947 ft | 458 kts | 349° |
| 2026-05-08 12:08 | 43.30299 | 1.37248 | 37935 ft | 458 kts | 349° |
| 2026-05-08 12:09 | 43.36625 | 1.36208 | 37937 ft | 457 kts | 349° |
| 2026-05-08 12:09 | 43.42943 | 1.35167 | 37955 ft | 457 kts | 349° |
| 2026-05-08 12:10 | 43.49249 | 1.34126 | 37940 ft | 456 kts | 349° |
| 2026-05-08 12:10 | 43.55545 | 1.33085 | 37945 ft | 455 kts | 349° |
| 2026-05-08 12:11 | 43.61785 | 1.32050 | 37940 ft | 454 kts | 349° |
| 2026-05-08 12:11 | 43.68057 | 1.31008 | 37940 ft | 454 kts | 349° |
| 2026-05-08 12:12 | 43.74316 | 1.29678 | 37940 ft | 451 kts | 346° |
| 2026-05-08 12:12 | 43.80488 | 1.28122 | 37943 ft | 450 kts | 346° |
| 2026-05-08 12:13 | 43.86610 | 1.26590 | 37955 ft | 450 kts | 346° |
| 2026-05-08 12:13 | 43.92823 | 1.25075 | 37947 ft | 450 kts | 346° |
| 2026-05-08 12:14 | 43.98986 | 1.23588 | 37949 ft | 449 kts | 347° |
| 2026-05-08 12:14 | 44.05096 | 1.22115 | 37959 ft | 448 kts | 346° |
| 2026-05-08 12:15 | 44.11242 | 1.20629 | 37945 ft | 448 kts | 346° |
| 2026-05-08 12:15 | 44.17376 | 1.19143 | 37945 ft | 447 kts | 346° |
| 2026-05-08 12:16 | 44.23501 | 1.17654 | 37965 ft | 446 kts | 346° |
| 2026-05-08 12:16 | 44.29622 | 1.16164 | 37945 ft | 446 kts | 346° |
| 2026-05-08 12:17 | 44.35729 | 1.14673 | 37944 ft | 445 kts | 346° |
| 2026-05-08 12:17 | 44.41830 | 1.13181 | 37961 ft | 445 kts | 346° |
| 2026-05-08 12:18 | 44.47928 | 1.11687 | 37954 ft | 445 kts | 347° |
| 2026-05-08 12:18 | 44.54023 | 1.10190 | 37952 ft | 445 kts | 346° |
| 2026-05-08 12:19 | 44.60117 | 1.08690 | 37950 ft | 444 kts | 347° |
| 2026-05-08 12:19 | 44.66208 | 1.07188 | 37959 ft | 445 kts | 346° |
| 2026-05-08 12:20 | 44.72300 | 1.05682 | 37950 ft | 444 kts | 346° |
| 2026-05-08 12:20 | 44.78390 | 1.04174 | 37955 ft | 444 kts | 346° |
| 2026-05-08 12:21 | 44.84479 | 1.02663 | 37958 ft | 444 kts | 346° |
| 2026-05-08 12:21 | 44.89536 | 1.01405 | 37950 ft | 444 kts | 346° |
| 2026-05-08 12:22 | 44.96606 | 0.99643 | 37943 ft | 444 kts | 346° |
| 2026-05-08 12:22 | 45.02683 | 0.98125 | 37959 ft | 443 kts | 346° |
| 2026-05-08 12:23 | 45.08759 | 0.96604 | 37959 ft | 443 kts | 346° |
| 2026-05-08 12:23 | 45.13810 | 0.95337 | 37962 ft | 443 kts | 346° |
| 2026-05-08 12:24 | 45.19881 | 0.93811 | 37971 ft | 443 kts | 346° |
| 2026-05-08 12:24 | 45.25949 | 0.92283 | 37935 ft | 443 kts | 346° |
| 2026-05-08 12:25 | 45.32014 | 0.90751 | 37945 ft | 442 kts | 346° |
| 2026-05-08 12:25 | 45.38073 | 0.89218 | 37954 ft | 442 kts | 346° |
| 2026-05-08 12:26 | 45.44131 | 0.87683 | 37951 ft | 442 kts | 346° |
| 2026-05-08 12:26 | 45.50178 | 0.86146 | 37959 ft | 441 kts | 346° |
| 2026-05-08 12:27 | 45.56219 | 0.84608 | 37964 ft | 441 kts | 346° |
| 2026-05-08 12:27 | 45.62254 | 0.83067 | 37975 ft | 440 kts | 345° |
| 2026-05-08 12:28 | 45.68289 | 0.81523 | 37967 ft | 440 kts | 345° |
| 2026-05-08 12:28 | 45.74313 | 0.79979 | 37970 ft | 440 kts | 345° |
| 2026-05-08 12:29 | 45.80362 | 0.78636 | 37960 ft | 444 kts | 353° |
| 2026-05-08 12:29 | 45.86552 | 0.78548 | 37969 ft | 445 kts | 356° |
| 2026-05-08 12:30 | 45.92752 | 0.78612 | 37973 ft | 446 kts | 356° |
| 2026-05-08 12:30 | 45.98963 | 0.78611 | 37986 ft | 447 kts | 355° |
| 2026-05-08 12:31 | 46.05182 | 0.78562 | 37973 ft | 447 kts | 355° |
| 2026-05-08 12:31 | 46.11412 | 0.78501 | 37970 ft | 448 kts | 355° |
| 2026-05-08 12:32 | 46.17661 | 0.78440 | 37987 ft | 449 kts | 355° |
| 2026-05-08 12:32 | 46.23876 | 0.78382 | 37969 ft | 450 kts | 355° |
| 2026-05-08 12:33 | 46.30142 | 0.78323 | 37967 ft | 450 kts | 355° |
| 2026-05-08 12:33 | 46.36407 | 0.78265 | 37973 ft | 450 kts | 355° |
| 2026-05-08 12:34 | 46.39541 | 0.78235 | 37761 ft | 454 kts | 355° |
| 2026-05-08 12:34 | 46.42713 | 0.78204 | 37273 ft | 454 kts | 355° |
| 2026-05-08 12:34 | 46.45865 | 0.78176 | 36723 ft | 451 kts | 355° |
| 2026-05-08 12:34 | 46.48991 | 0.78148 | 36302 ft | 446 kts | 355° |
| 2026-05-08 12:35 | 46.52079 | 0.78121 | 35893 ft | 442 kts | 356° |
| 2026-05-08 12:35 | 46.55138 | 0.78384 | 35529 ft | 440 kts | 6° |
| 2026-05-08 12:35 | 46.58115 | 0.79260 | 35310 ft | 434 kts | 8° |
| 2026-05-08 12:35 | 46.61051 | 0.80222 | 34901 ft | 431 kts | 8° |
| 2026-05-08 12:36 | 46.63960 | 0.81192 | 34510 ft | 427 kts | 8° |
| 2026-05-08 12:36 | 46.66840 | 0.82143 | 34126 ft | 423 kts | 8° |
| 2026-05-08 12:36 | 46.69704 | 0.83072 | 33700 ft | 419 kts | 7° |
| 2026-05-08 12:36 | 46.72541 | 0.83981 | 33268 ft | 416 kts | 7° |
| 2026-05-08 12:37 | 46.75351 | 0.84875 | 32886 ft | 411 kts | 7° |
| 2026-05-08 12:37 | 46.78137 | 0.85759 | 32482 ft | 408 kts | 7° |
| 2026-05-08 12:37 | 46.80896 | 0.86633 | 32110 ft | 404 kts | 7° |
| 2026-05-08 12:37 | 46.83629 | 0.87500 | 31719 ft | 401 kts | 7° |
| 2026-05-08 12:38 | 46.86346 | 0.88363 | 31341 ft | 398 kts | 7° |
| 2026-05-08 12:38 | 46.89040 | 0.89220 | 30961 ft | 395 kts | 7° |
| 2026-05-08 12:38 | 46.91716 | 0.90072 | 30592 ft | 392 kts | 8° |
| 2026-05-08 12:38 | 46.94374 | 0.90919 | 30227 ft | 390 kts | 8° |
| 2026-05-08 12:39 | 46.97013 | 0.91762 | 29848 ft | 387 kts | 8° |
| 2026-05-08 12:39 | 46.99631 | 0.92599 | 29433 ft | 384 kts | 8° |
| 2026-05-08 12:39 | 47.02233 | 0.93430 | 29118 ft | 378 kts | 8° |
| 2026-05-08 12:39 | 47.04774 | 0.94240 | 28874 ft | 371 kts | 7° |
| 2026-05-08 12:40 | 47.07286 | 0.95036 | 28537 ft | 367 kts | 7° |
| 2026-05-08 12:40 | 47.09776 | 0.95824 | 28154 ft | 365 kts | 8° |
| 2026-05-08 12:40 | 47.12247 | 0.96607 | 27785 ft | 362 kts | 8° |
| 2026-05-08 12:40 | 47.14700 | 0.97385 | 27404 ft | 360 kts | 8° |
| 2026-05-08 12:41 | 47.17135 | 0.98159 | 27049 ft | 357 kts | 8° |
| 2026-05-08 12:41 | 47.19558 | 0.98931 | 26697 ft | 355 kts | 7° |
| 2026-05-08 12:41 | 47.21963 | 0.99697 | 26327 ft | 353 kts | 8° |
| 2026-05-08 12:41 | 47.24355 | 1.00459 | 25968 ft | 351 kts | 8° |
| 2026-05-08 12:42 | 47.26735 | 1.01219 | 25613 ft | 349 kts | 8° |
| 2026-05-08 12:42 | 47.29104 | 1.01976 | 25257 ft | 347 kts | 8° |
| 2026-05-08 12:42 | 47.31461 | 1.02730 | 24907 ft | 346 kts | 8° |
| 2026-05-08 12:42 | 47.33804 | 1.03480 | 24553 ft | 344 kts | 8° |
| 2026-05-08 12:43 | 47.36138 | 1.04228 | 24206 ft | 343 kts | 8° |
| 2026-05-08 12:43 | 47.38465 | 1.04975 | 23871 ft | 342 kts | 8° |
| 2026-05-08 12:43 | 47.40782 | 1.05719 | 23498 ft | 341 kts | 8° |
| 2026-05-08 12:43 | 47.43097 | 1.06471 | 23085 ft | 340 kts | 9° |
| 2026-05-08 12:44 | 47.45350 | 1.07511 | 22774 ft | 339 kts | 15° |
| 2026-05-08 12:44 | 47.47524 | 1.08702 | 22408 ft | 337 kts | 16° |
| 2026-05-08 12:44 | 47.49719 | 1.09897 | 22051 ft | 335 kts | 16° |
| 2026-05-08 12:44 | 47.51903 | 1.11057 | 21703 ft | 333 kts | 15° |
| 2026-05-08 12:45 | 47.54087 | 1.12179 | 21328 ft | 331 kts | 15° |
| 2026-05-08 12:45 | 47.56262 | 1.13280 | 20992 ft | 330 kts | 15° |
| 2026-05-08 12:45 | 47.58439 | 1.14380 | 20650 ft | 331 kts | 15° |
| 2026-05-08 12:45 | 47.60623 | 1.15483 | 20314 ft | 333 kts | 15° |
| 2026-05-08 12:46 | 47.62835 | 1.16603 | 19976 ft | 340 kts | 15° |
| 2026-05-08 12:46 | 47.65095 | 1.17748 | 19618 ft | 346 kts | 16° |
| 2026-05-08 12:46 | 47.67376 | 1.18908 | 19235 ft | 346 kts | 16° |
| 2026-05-08 12:46 | 47.69650 | 1.20068 | 18879 ft | 345 kts | 16° |
| 2026-05-08 12:47 | 47.71921 | 1.21227 | 18498 ft | 345 kts | 17° |
| 2026-05-08 12:47 | 47.74184 | 1.22385 | 18109 ft | 344 kts | 17° |
| 2026-05-08 12:47 | 47.76446 | 1.23541 | 17706 ft | 343 kts | 17° |
| 2026-05-08 12:47 | 47.78693 | 1.24692 | 17349 ft | 341 kts | 17° |
| 2026-05-08 12:48 | 47.80928 | 1.25838 | 16997 ft | 339 kts | 17° |
| 2026-05-08 12:48 | 47.83150 | 1.26977 | 16629 ft | 337 kts | 17° |
| 2026-05-08 12:48 | 47.85362 | 1.28112 | 16277 ft | 336 kts | 17° |
| 2026-05-08 12:48 | 47.87565 | 1.29243 | 15919 ft | 334 kts | 17° |
| 2026-05-08 12:49 | 47.89758 | 1.30370 | 15580 ft | 332 kts | 17° |
| 2026-05-08 12:49 | 47.91948 | 1.31452 | 15227 ft | 330 kts | 12° |
| 2026-05-08 12:49 | 47.94203 | 1.31710 | 14874 ft | 323 kts | 351° |
| 2026-05-08 12:49 | 47.96392 | 1.31106 | 14562 ft | 317 kts | 339° |
| 2026-05-08 12:50 | 47.98276 | 1.29549 | 14306 ft | 305 kts | 314° |
| 2026-05-08 12:50 | 47.99464 | 1.27103 | 14207 ft | 289 kts | 289° |
| 2026-05-08 12:50 | 47.99823 | 1.24210 | 13979 ft | 285 kts | 264° |
| 2026-05-08 12:50 | 47.99281 | 1.21407 | 13738 ft | 283 kts | 239° |
| 2026-05-08 12:51 | 47.97959 | 1.19278 | 13459 ft | 282 kts | 214° |
| 2026-05-08 12:51 | 47.94180 | 1.18385 | 13053 ft | 288 kts | 168° |
| 2026-05-08 12:51 | 47.92311 | 1.19625 | 13031 ft | 303 kts | 147° |
| 2026-05-08 12:52 | 47.90845 | 1.21928 | 13003 ft | 314 kts | 122° |
| 2026-05-08 12:52 | 47.90317 | 1.28292 | 12999 ft | 321 kts | 72° |
| 2026-05-08 12:52 | 47.91398 | 1.31161 | 12992 ft | 320 kts | 46° |
| 2026-05-08 12:53 | 47.93186 | 1.33069 | 13008 ft | 316 kts | 21° |
| 2026-05-08 12:53 | 47.95263 | 1.34106 | 13013 ft | 315 kts | 14° |
| 2026-05-08 12:53 | 47.97377 | 1.34982 | 13017 ft | 315 kts | 13° |
| 2026-05-08 12:53 | 47.99492 | 1.35868 | 13009 ft | 317 kts | 14° |
| 2026-05-08 12:54 | 48.01608 | 1.36785 | 13011 ft | 317 kts | 14° |
| 2026-05-08 12:54 | 48.03723 | 1.37723 | 13008 ft | 317 kts | 15° |
| 2026-05-08 12:54 | 48.05829 | 1.38704 | 13007 ft | 318 kts | 20° |
| 2026-05-08 12:54 | 48.07747 | 1.40347 | 12766 ft | 320 kts | 34° |
| 2026-05-08 12:55 | 48.09560 | 1.42287 | 12500 ft | 321 kts | 34° |
| 2026-05-08 12:55 | 48.11392 | 1.44197 | 12238 ft | 321 kts | 33° |
| 2026-05-08 12:55 | 48.13228 | 1.46075 | 11992 ft | 317 kts | 33° |
| 2026-05-08 12:55 | 48.15031 | 1.47904 | 11831 ft | 310 kts | 33° |
| 2026-05-08 12:56 | 48.16797 | 1.49690 | 11687 ft | 304 kts | 33° |
| 2026-05-08 12:56 | 48.18536 | 1.51447 | 11554 ft | 301 kts | 33° |
| 2026-05-08 12:56 | 48.20268 | 1.53199 | 11412 ft | 300 kts | 33° |
| 2026-05-08 12:56 | 48.21995 | 1.54948 | 11288 ft | 300 kts | 33° |
| 2026-05-08 12:57 | 48.23733 | 1.56710 | 11149 ft | 303 kts | 33° |
| 2026-05-08 12:57 | 48.25495 | 1.58502 | 11067 ft | 308 kts | 33° |
| 2026-05-08 12:57 | 48.27262 | 1.60301 | 11022 ft | 304 kts | 33° |
| 2026-05-08 12:57 | 48.29020 | 1.62088 | 10741 ft | 306 kts | 33° |
| 2026-05-08 12:58 | 48.30752 | 1.63852 | 10601 ft | 304 kts | 33° |
| 2026-05-08 12:58 | 48.32512 | 1.65648 | 10417 ft | 299 kts | 33° |
| 2026-05-08 12:58 | 48.34199 | 1.67366 | 10280 ft | 296 kts | 33° |
| 2026-05-08 12:58 | 48.35887 | 1.69092 | 10144 ft | 290 kts | 33° |
| 2026-05-08 12:59 | 48.37541 | 1.70781 | 9956 ft | 286 kts | 32° |
| 2026-05-08 12:59 | 48.39191 | 1.72465 | 9597 ft | 287 kts | 34° |
| 2026-05-08 12:59 | 48.40838 | 1.74149 | 9274 ft | 286 kts | 33° |
| 2026-05-08 12:59 | 48.42483 | 1.75833 | 8933 ft | 286 kts | 33° |
| 2026-05-08 13:00 | 48.44122 | 1.77512 | 8615 ft | 285 kts | 33° |
| 2026-05-08 13:00 | 48.45762 | 1.79191 | 8289 ft | 284 kts | 33° |
| 2026-05-08 13:00 | 48.47393 | 1.80866 | 7972 ft | 284 kts | 33° |
| 2026-05-08 13:00 | 48.49024 | 1.82541 | 7641 ft | 283 kts | 34° |
| 2026-05-08 13:01 | 48.50648 | 1.84210 | 7320 ft | 282 kts | 34° |
| 2026-05-08 13:01 | 48.52263 | 1.85871 | 7082 ft | 278 kts | 34° |
| 2026-05-08 13:01 | 48.53828 | 1.87482 | 7029 ft | 267 kts | 34° |
| 2026-05-08 13:01 | 48.55326 | 1.89025 | 7025 ft | 255 kts | 34° |
| 2026-05-08 13:02 | 48.56754 | 1.90496 | 7007 ft | 243 kts | 34° |
| 2026-05-08 13:02 | 48.57945 | 1.92205 | 6901 ft | 235 kts | 59° |
| 2026-05-08 13:02 | 48.58732 | 1.94281 | 6851 ft | 222 kts | 58° |
| 2026-05-08 13:02 | 48.59526 | 1.96258 | 6549 ft | 219 kts | 59° |
| 2026-05-08 13:03 | 48.60268 | 1.98237 | 6171 ft | 215 kts | 61° |
| 2026-05-08 13:03 | 48.60967 | 2.00200 | 5798 ft | 210 kts | 62° |
| 2026-05-08 13:03 | 48.61652 | 2.02152 | 5262 ft | 211 kts | 62° |
| 2026-05-08 13:03 | 48.62347 | 2.04140 | 4631 ft | 216 kts | 62° |
| 2026-05-08 13:04 | 48.63045 | 2.06140 | 4145 ft | 212 kts | 63° |
| 2026-05-08 13:04 | 48.63719 | 2.08070 | 3830 ft | 202 kts | 63° |
| 2026-05-08 13:04 | 48.64352 | 2.09879 | 3550 ft | 189 kts | 63° |
| 2026-05-08 13:04 | 48.64938 | 2.11555 | 3316 ft | 173 kts | 63° |
| 2026-05-08 13:05 | 48.65482 | 2.13105 | 3092 ft | 162 kts | 63° |
| 2026-05-08 13:05 | 48.65989 | 2.14558 | 2919 ft | 148 kts | 63° |
| 2026-05-08 13:05 | 48.66459 | 2.15896 | 2697 ft | 141 kts | 63° |
| 2026-05-08 13:05 | 48.66918 | 2.17205 | 2511 ft | 141 kts | 64° |
| 2026-05-08 13:06 | 48.67373 | 2.18510 | 2332 ft | 139 kts | 63° |
| 2026-05-08 13:06 | 48.67839 | 2.19832 | 2147 ft | 146 kts | 62° |
| 2026-05-08 13:06 | 48.68316 | 2.21200 | 1908 ft | 144 kts | 63° |
| 2026-05-08 13:06 | 48.68775 | 2.22509 | 1758 ft | 138 kts | 62° |
| 2026-05-08 13:07 | 48.69222 | 2.23789 | 1533 ft | 135 kts | 63° |
| 2026-05-08 13:07 | 48.69668 | 2.25048 | 1354 ft | 138 kts | 62° |
| 2026-05-08 13:07 | 48.70125 | 2.26347 | 1166 ft | 142 kts | 63° |
| 2026-05-08 13:07 | 48.70591 | 2.27680 | 1000 ft | 145 kts | 62° |
| 2026-05-08 13:08 | 48.71066 | 2.29035 | 805 ft | 144 kts | 62° |
| 2026-05-08 13:08 | 48.71537 | 2.30365 | 610 ft | 143 kts | 60° |
| 2026-05-08 13:08 | 48.72001 | 2.31685 | 397 ft | 142 kts | 61° |
| 2026-05-08 13:08 | 48.72443 | 2.32945 | 302 ft | 121 kts | 61° |
| 2026-05-08 13:09 | 48.72760 | 2.33844 | 301 ft | 72 kts | 62° |
| 2026-05-08 13:09 | 48.72972 | 2.34460 | 298 ft | 48 kts | 68° |
| 2026-05-08 13:09 | 48.73015 | 2.34795 | 296 ft | 28 kts | 82° |
| 2026-05-08 13:09 | 48.73036 | 2.35020 | 298 ft | 18 kts | 82° |
| 2026-05-08 13:10 | 48.73024 | 2.35191 | 295 ft | 16 kts | 108° |
| 2026-05-08 13:10 | 48.72947 | 2.35302 | 298 ft | 16 kts | 161° |
| 2026-05-08 13:10 | 48.72843 | 2.35302 | 298 ft | 15 kts | 196° |
| 2026-05-08 13:10 | 48.72740 | 2.35256 | 295 ft | 17 kts | 189° |
| 2026-05-08 13:11 | 48.72635 | 2.35283 | 296 ft | 19 kts | 164° |
| 2026-05-08 13:11 | 48.72500 | 2.35341 | 298 ft | 21 kts | 164° |
| 2026-05-08 13:11 | 48.72428 | 2.35487 | 299 ft | 20 kts | 76° |
| 2026-05-08 13:11 | 48.72452 | 2.35623 | 298 ft | 19 kts | 75° |
| 2026-05-08 13:12 | 48.72477 | 2.35820 | 300 ft | 19 kts | 93° |
| 2026-05-08 13:12 | 48.72470 | 2.36014 | 297 ft | 18 kts | 83° |
| 2026-05-08 13:12 | 48.72501 | 2.36196 | 298 ft | 18 kts | 75° |
| 2026-05-08 13:12 | 48.72533 | 2.36372 | 299 ft | 17 kts | 74° |
| 2026-05-08 13:13 | 48.72569 | 2.36523 | 299 ft | 12 kts | 37° |
| 2026-05-08 13:13 | 48.72627 | 2.36500 | 301 ft | 3 kts | 332° |
| 2026-05-08 13:13 | 48.72642 | 2.36489 | 299 ft | 1 kts | 332° |
| 2026-05-08 13:13 | 48.72644 | 2.36487 | 299 ft | 0 kts | 332° |